Time;durP1;ratioP1;P1;durP2;ratioP2;P2;SDS_P1;SDS_P2;PMS_P1;PMS_P2;Temp;Humidity;BMP_temperature;BMP_pressure;BME280_temperature;BME280_humidity;BME280_pressure;Samples;Min_cycle;Max_cycle;Signal;HPM_P1;HPM_P2
2022/05/12 00:00:58;;;;;;;5.28;0.70;;;;;;;11.11;100.00;100971.22;10470261;28;20067;-67
2022/05/12 00:05:58;;;;;;;3.95;0.88;;;;;;;11.06;100.00;100982.19;10493378;28;20078;-67
2022/05/12 00:10:58;;;;;;;5.25;0.60;;;;;;;10.75;100.00;100938.75;10475001;28;20036;-67
2022/05/12 00:15:59;;;;;;;4.30;0.63;;;;;;;10.91;100.00;101001.22;10510280;28;20098;-67
2022/05/12 00:21:00;;;;;;;1.92;0.80;;;;;;;10.99;100.00;101009.06;10475474;28;20051;-68
2022/05/12 00:26:00;;;;;;;3.92;1.10;;;;;;;10.93;100.00;101023.84;10507557;28;20040;-68
2022/05/12 00:31:01;;;;;;;4.15;1.38;;;;;;;10.81;100.00;101034.13;10456846;28;20079;-66
2022/05/12 00:36:01;;;;;;;3.08;1.10;;;;;;;10.88;100.00;101062.34;10451045;28;20051;-66
2022/05/12 00:41:02;;;;;;;4.30;1.40;;;;;;;10.91;100.00;101072.84;10460789;28;20118;-67
2022/05/12 00:46:07;;;;;;;4.45;1.15;;;;;;;10.82;100.00;101069.69;10460470;28;20037;-67
2022/05/12 00:51:09;;;;;;;4.18;1.48;;;;;;;10.62;100.00;101083.13;10461389;28;20063;-67
2022/05/12 00:56:12;;;;;;;8.00;1.50;;;;;;;10.55;100.00;101102.56;10460211;28;20048;-67
2022/05/12 01:01:12;;;;;;;6.05;1.40;;;;;;;10.44;100.00;101108.97;10468571;28;20101;-67
2022/05/12 01:06:13;;;;;;;5.18;1.10;;;;;;;10.33;100.00;101129.13;10502925;28;20028;-68
2022/05/12 01:11:16;;;;;;;10.73;2.08;;;;;;;10.24;100.00;101129.50;10484281;28;20056;-67
2022/05/12 01:16:56;;;;;;;4.47;1.23;;;;;;;10.20;100.00;101142.06;10484528;28;20029;-67
2022/05/12 01:21:57;;;;;;;2.47;0.90;;;;;;;10.06;100.00;101148.94;10479489;28;20044;-67
2022/05/12 01:27:18;;;;;;;3.95;1.08;;;;;;;9.84;100.00;101124.03;10476855;28;20040;-67
2022/05/12 01:32:20;;;;;;;2.63;0.70;;;;;;;9.90;100.00;101154.13;10458413;28;20045;-67
2022/05/12 01:37:21;;;;;;;5.00;1.38;;;;;;;9.78;100.00;101158.81;10458369;28;20068;-67
2022/05/12 01:42:21;;;;;;;3.47;0.70;;;;;;;9.83;100.00;101180.09;10458741;28;20048;-67
2022/05/12 01:47:22;;;;;;;4.85;1.15;;;;;;;9.76;100.00;101193.97;10459713;28;20052;-67
2022/05/12 01:52:22;;;;;;;1.85;0.63;;;;;;;9.73;100.00;101197.19;10459265;28;20052;-66
2022/05/12 01:57:23;;;;;;;5.85;1.08;;;;;;;9.61;100.00;101190.88;10460147;28;20044;-67
2022/05/12 02:02:23;;;;;;;4.43;0.90;;;;;;;9.60;100.00;101200.19;10442527;28;20074;-68
2022/05/12 02:07:24;;;;;;;3.33;0.80;;;;;;;9.52;100.00;101200.56;10462481;28;20036;-66
2022/05/12 02:12:24;;;;;;;2.60;0.70;;;;;;;9.50;100.00;101215.38;10441079;28;20479;-69
2022/05/12 02:17:24;;;;;;;1.52;0.85;;;;;;;9.43;100.00;101222.91;10439941;28;20080;-69
2022/05/12 02:22:25;;;;;;;2.00;0.75;;;;;;;9.34;100.00;101237.22;10458379;28;20537;-69
2022/05/12 02:27:25;;;;;;;3.88;1.00;;;;;;;9.18;100.00;101241.53;10457031;28;20485;-69
2022/05/12 02:32:29;;;;;;;4.80;1.25;;;;;;;9.16;100.00;101254.66;10458120;28;20090;-68
2022/05/12 02:37:29;;;;;;;4.30;1.40;;;;;;;8.98;100.00;101242.66;10456706;28;20478;-69
2022/05/12 02:42:29;;;;;;;5.07;1.60;;;;;;;9.01;100.00;101261.44;10457682;28;20037;-69
2022/05/12 02:47:30;;;;;;;4.38;1.40;;;;;;;8.98;100.00;101281.09;10455717;28;20044;-66
2022/05/12 02:52:30;;;;;;;8.50;2.60;;;;;;;8.89;100.00;101282.53;10456771;28;20037;-69
2022/05/12 02:57:32;;;;;;;8.63;2.17;;;;;;;8.83;100.00;101294.44;10455593;28;20091;-67
2022/05/12 03:02:33;;;;;;;3.70;1.52;;;;;;;8.78;100.00;101302.50;10455297;28;20033;-68
2022/05/12 03:07:33;;;;;;;9.10;2.38;;;;;;;8.75;100.00;101303.00;10454690;28;20029;-69
2022/05/12 03:12:34;;;;;;;9.32;2.40;;;;;;;8.63;100.00;101294.69;10456586;28;20481;-67
2022/05/12 03:17:35;;;;;;;9.35;2.90;;;;;;;8.63;100.00;101305.66;10456920;28;20036;-67
2022/05/12 03:22:36;;;;;;;7.35;2.30;;;;;;;8.63;100.00;101312.00;10456605;28;20098;-67
2022/05/12 03:27:37;;;;;;;8.85;2.22;;;;;;;8.60;100.00;101323.44;10455776;28;20052;-67
2022/05/12 03:32:38;;;;;;;7.40;2.25;;;;;;;8.56;100.00;101316.75;10458159;28;20050;-67
2022/05/12 03:37:39;;;;;;;9.77;3.25;;;;;;;8.45;100.00;101320.22;10495297;28;20029;-68
2022/05/12 03:42:39;;;;;;;12.35;3.90;;;;;;;8.50;100.00;101339.59;10495513;28;20032;-68
2022/05/12 03:47:41;;;;;;;10.85;5.38;;;;;;;8.52;100.00;101347.63;10498020;28;20412;-67
2022/05/12 03:52:42;;;;;;;17.05;7.00;;;;;;;8.52;100.00;101353.94;10481683;28;20075;-67
2022/05/12 03:57:44;;;;;;;9.18;5.45;;;;;;;8.52;100.00;101353.09;10453862;28;20067;-68
2022/05/12 04:02:46;;;;;;;12.45;4.10;;;;;;;8.47;100.00;101353.78;10453049;28;20066;-67
2022/05/12 04:07:47;;;;;;;8.68;4.05;;;;;;;8.49;100.00;101359.88;10453399;28;20033;-67
2022/05/12 04:12:48;;;;;;;7.03;4.05;;;;;;;8.53;100.00;101361.09;10454368;28;20060;-67
2022/05/12 04:17:58;;;;;;;16.95;4.88;;;;;;;8.62;100.00;101380.81;10463859;28;20041;-67
2022/05/12 04:22:59;;;;;;;10.80;5.30;;;;;;;8.65;100.00;101386.69;10462231;28;20033;-67
2022/05/12 04:27:59;;;;;;;13.95;5.93;;;;;;;8.68;100.00;101396.38;10461559;28;20492;-69
2022/05/12 04:35:09;;;;;;;9.90;4.80;;;;;;;8.69;100.00;101396.16;10460388;28;20075;-67
2022/05/12 04:38:20;;;;;;;11.35;4.05;;;;;;;8.64;100.00;101395.16;10459899;28;20041;-68
2022/05/12 04:43:21;;;;;;;12.02;5.82;;;;;;;8.73;100.00;101415.75;10460691;28;20408;-67
2022/05/12 04:48:21;;;;;;;12.77;3.88;;;;;;;8.76;100.00;101420.78;10462176;28;20045;-67
2022/05/12 04:53:22;;;;;;;16.98;4.43;;;;;;;8.64;100.00;101387.78;10443497;28;20109;-68
2022/05/12 04:58:22;;;;;;;11.05;4.53;;;;;;;8.96;100.00;101434.28;10458912;28;20036;-68
2022/05/12 05:03:23;;;;;;;19.23;5.18;;;;;;;9.04;100.00;101442.22;10472882;28;20056;-67
2022/05/12 05:08:23;;;;;;;10.38;5.50;;;;;;;8.64;100.00;101368.56;10502287;28;20048;-67
2022/05/12 05:13:24;;;;;;;12.93;5.75;;;;;;;9.31;100.00;101455.63;10501394;28;20496;-68
2022/05/12 05:18:24;;;;;;;15.63;7.22;;;;;;;9.49;100.00;101461.06;10503749;28;20107;-67
2022/05/12 05:23:25;;;;;;;13.38;6.93;;;;;;;9.65;100.00;101467.84;10502759;28;20056;-68
2022/05/12 05:28:25;;;;;;;20.15;9.05;;;;;;;9.79;100.00;101460.22;10500222;28;20036;-68
2022/05/12 05:33:26;;;;;;;17.85;9.30;;;;;;;10.01;100.00;101465.19;10478068;28;20033;-68
2022/05/12 05:38:27;;;;;;;23.05;9.52;;;;;;;10.22;100.00;101475.63;10458157;28;20087;-66
2022/05/12 05:43:28;;;;;;;10.93;5.97;;;;;;;10.46;100.00;101478.44;10460717;28;20056;-67
2022/05/12 05:48:29;;;;;;;15.30;6.07;;;;;;;10.77;100.00;101485.50;10460822;28;20048;-68
2022/05/12 05:53:33;;;;;;;11.25;4.50;;;;;;;11.07;100.00;101499.09;10459562;28;20511;-67
2022/05/12 05:58:34;;;;;;;9.77;3.80;;;;;;;11.27;100.00;101495.09;10486128;28;20067;-67
2022/05/12 06:03:34;;;;;;;9.80;4.97;;;;;;;11.66;100.00;101521.00;10498222;28;20043;-67
2022/05/12 06:08:35;;;;;;;13.45;4.50;;;;;;;11.62;100.00;101472.91;10481593;28;20044;-67
2022/05/12 06:13:36;;;;;;;19.80;5.25;;;;;;;12.17;100.00;101537.66;10482908;28;20064;-67
2022/05/12 06:18:37;;;;;;;9.13;3.58;;;;;;;12.35;100.00;101533.03;10499286;28;20041;-67
2022/05/12 06:23:39;;;;;;;8.40;3.50;;;;;;;12.58;100.00;101549.41;10498354;28;20090;-67
2022/05/12 06:28:41;;;;;;;9.38;3.80;;;;;;;12.80;100.00;101551.44;10496895;28;20492;-68
2022/05/12 06:33:42;;;;;;;12.10;5.32;;;;;;;13.06;100.00;101558.16;10496433;28;20036;-67
2022/05/12 06:38:42;;;;;;;8.65;3.40;;;;;;;13.19;100.00;101568.00;10497369;28;20041;-67
2022/05/12 06:43:45;;;;;;;9.40;3.70;;;;;;;13.20;100.00;101556.72;10499131;28;20033;-66
2022/05/12 06:48:47;;;;;;;5.13;3.13;;;;;;;13.34;100.00;101571.03;10471238;28;20063;-68
2022/05/12 06:53:48;;;;;;;10.15;3.38;;;;;;;13.50;100.00;101583.97;10478873;28;20067;-68
2022/05/12 06:58:48;;;;;;;8.30;3.13;;;;;;;13.68;100.00;101579.22;10494745;28;20047;-68
2022/05/12 07:03:49;;;;;;;9.18;4.10;;;;;;;13.74;100.00;101600.31;10495927;28;20066;-69
2022/05/12 07:08:49;;;;;;;7.38;3.85;;;;;;;13.74;100.00;101622.44;10497303;28;20036;-67
2022/05/12 07:13:50;;;;;;;11.30;3.30;;;;;;;14.10;100.00;101625.66;10463935;28;20032;-67
2022/05/12 07:18:50;;;;;;;13.90;3.95;;;;;;;14.39;100.00;101617.13;10494431;28;20029;-67
2022/05/12 07:29:13;;;;;;;8.50;2.88;;;;;;;14.44;100.00;101617.16;10493864;28;20028;-67
2022/05/12 07:34:13;;;;;;;9.95;2.67;;;;;;;14.62;100.00;101632.59;10469731;28;20112;-67
2022/05/12 07:39:14;;;;;;;9.13;3.05;;;;;;;14.15;100.00;101645.09;10497597;28;20062;-67
2022/05/12 07:44:17;;;;;;;5.65;2.08;;;;;;;14.46;100.00;101639.88;10495538;28;20080;-68
2022/05/12 07:49:17;;;;;;;8.13;2.75;;;;;;;14.69;100.00;101635.97;10481817;28;20032;-68
2022/05/12 07:54:17;;;;;;;11.70;2.10;;;;;;;15.06;100.00;101636.00;10502436;28;20044;-69
2022/05/12 07:59:18;;;;;;;8.68;2.15;;;;;;;15.25;100.00;101585.66;10504738;28;20036;-66
2022/05/12 08:04:19;;;;;;;6.50;1.38;;;;;;;15.49;100.00;101639.63;10499868;28;20044;-66
2022/05/12 08:09:19;;;;;;;13.02;1.67;;;;;;;15.33;100.00;101635.06;10502728;28;20040;-68
2022/05/12 08:14:20;;;;;;;5.57;1.30;;;;;;;15.56;100.00;101638.53;10504792;28;20029;-68
2022/05/12 08:19:20;;;;;;;4.18;1.40;;;;;;;15.60;100.00;101636.91;10501646;28;20055;-67
2022/05/12 08:24:21;;;;;;;7.18;1.38;;;;;;;16.01;100.00;101637.13;10501486;28;20065;-67
2022/05/12 08:29:21;;;;;;;4.88;1.45;;;;;;;16.48;97.25;101630.56;10502165;28;20043;-66
2022/05/12 08:34:22;;;;;;;4.32;1.15;;;;;;;16.84;94.37;101630.63;10502982;28;20095;-67
2022/05/12 08:39:22;;;;;;;4.10;1.17;;;;;;;17.01;90.35;101633.97;10502730;28;20037;-68
2022/05/12 08:44:23;;;;;;;10.65;1.27;;;;;;;16.37;87.95;101620.53;10504567;28;20025;-67
2022/05/12 08:49:27;;;;;;;6.35;1.27;;;;;;;16.69;85.70;101635.03;10501782;28;20037;-67
2022/05/12 08:54:28;;;;;;;4.68;1.08;;;;;;;16.53;84.08;101627.78;10501745;28;20041;-70
2022/05/12 08:59:29;;;;;;;4.07;1.08;;;;;;;17.13;85.35;101631.69;10480475;28;20045;-67
2022/05/12 09:04:46;;;;;;;4.35;0.88;;;;;;;16.95;86.46;101646.19;10460533;28;20041;-68
2022/05/12 09:10:08;;;;;;;7.00;0.90;;;;;;;17.40;82.12;101635.28;10500952;28;20040;-69
2022/05/12 09:15:16;;;;;;;4.03;1.08;;;;;;;17.50;79.21;101630.50;10502207;28;20230;-68
2022/05/12 09:20:17;;;;;;;4.20;0.65;;;;;;;17.49;78.11;101634.44;10484427;28;20032;-66
2022/05/12 09:25:42;;;;;;;3.17;1.08;;;;;;;18.35;77.35;101634.34;10500514;28;20033;-67
2022/05/12 09:30:43;;;;;;;4.03;1.13;;;;;;;18.05;75.49;101625.03;10500996;28;20064;-66
2022/05/12 09:35:44;;;;;;;6.75;1.02;;;;;;;18.56;73.60;101629.47;10500575;28;20048;-71
2022/05/12 09:40:44;;;;;;;2.28;0.70;;;;;;;18.86;71.26;101611.69;10446097;28;20377;-67
2022/05/12 09:46:00;;;;;;;5.97;0.82;;;;;;;19.04;72.35;101643.63;10446848;28;20041;-67
2022/05/12 09:51:13;;;;;;;4.32;1.00;;;;;;;18.81;69.40;101622.03;10498195;28;20041;-70
2022/05/12 09:56:31;;;;;;;4.20;0.90;;;;;;;19.13;67.17;101594.41;10499391;28;20480;-68
2022/05/12 10:01:32;;;;;;;5.10;0.82;;;;;;;19.56;64.32;101614.03;10496988;28;20037;-69
2022/05/12 10:12:22;;;;;;;4.40;0.90;;;;;;;18.48;68.82;101638.44;10495046;28;20052;-70
2022/05/12 10:17:35;;;;;;;5.20;1.08;;;;;;;18.21;69.04;101639.75;10496201;28;20083;-69
2022/05/12 10:22:45;;;;;;;3.70;0.90;;;;;;;18.29;68.89;101641.06;10497004;28;20049;-69
2022/05/12 10:27:51;;;;;;;3.38;1.10;;;;;;;18.02;70.82;101647.91;10497064;28;20028;-68
2022/05/12 10:33:15;;;;;;;11.47;1.97;;;;;;;19.02;63.72;101625.50;10497599;28;20162;-68
2022/05/12 10:38:37;;;;;;;3.90;0.85;;;;;;;18.82;65.62;101626.53;10497090;28;20067;-70
2022/05/12 10:43:58;;;;;;;2.08;0.70;;;;;;;18.17;66.04;101632.22;10495898;28;20043;-67
2022/05/12 10:49:10;;;;;;;4.97;0.95;;;;;;;17.81;66.40;101649.91;10456144;28;20116;-67
2022/05/12 10:54:28;;;;;;;4.40;0.80;;;;;;;18.47;63.58;101643.19;10490929;28;20048;-69
2022/05/12 11:00:13;;;;;;;2.78;0.70;;;;;;;19.43;61.91;101631.53;10454066;28;20128;-70
2022/05/12 11:05:32;;;;;;;8.23;1.00;;;;;;;18.53;63.97;101647.59;10348089;28;20037;-66
2022/05/12 11:10:32;;;;;;;4.88;0.90;;;;;;;17.48;63.14;101652.22;10421658;28;20478;-68
2022/05/12 11:15:48;;;;;;;7.38;0.80;;;;;;;17.89;65.56;101660.50;10452372;28;20056;-68
2022/05/12 11:20:55;;;;;;;7.60;1.05;;;;;;;18.49;62.62;101640.94;10438589;28;20060;-69
2022/05/12 11:26:24;;;;;;;3.38;1.02;;;;;;;18.51;61.84;101646.25;10453448;28;20043;-67
2022/05/12 11:31:47;;;;;;;3.53;1.20;;;;;;;19.26;60.34;101645.09;10474168;28;20128;-68
2022/05/12 11:36:49;;;;;;;4.32;0.70;;;;;;;18.40;60.25;101647.41;10495766;28;20172;-67
2022/05/12 11:42:11;;;;;;;6.20;1.30;;;;;;;18.47;61.13;101650.72;10495708;28;20040;-67
2022/05/12 11:47:26;;;;;;;8.85;1.15;;;;;;;18.80;60.66;101648.28;10480409;28;20841;-68
2022/05/12 11:52:46;;;;;;;5.97;1.20;;;;;;;18.37;61.89;101659.16;10497651;28;20048;-67
2022/05/12 11:58:03;;;;;;;5.80;1.13;;;;;;;18.15;61.65;101649.25;10470549;28;20059;-67
2022/05/12 12:03:19;;;;;;;4.30;0.88;;;;;;;19.11;59.76;101635.72;10453543;28;20047;-68
2022/05/12 12:08:31;;;;;;;3.70;0.70;;;;;;;19.22;59.53;101644.00;10455436;28;20079;-67
2022/05/12 12:13:33;;;;;;;3.60;0.85;;;;;;;19.93;58.25;101637.66;10455100;28;20044;-67
2022/05/12 12:18:33;;;;;;;4.28;1.45;;;;;;;20.61;56.16;101635.59;10448194;28;20044;-69
2022/05/12 12:23:35;;;;;;;4.43;0.80;;;;;;;21.05;55.03;101625.91;10494269;28;20052;-68
2022/05/12 12:28:55;;;;;;;5.25;0.90;;;;;;;22.17;51.81;101599.56;10465577;28;20044;-67
2022/05/12 12:34:14;;;;;;;3.33;0.93;;;;;;;22.50;52.16;101603.03;10453735;28;20037;-68
2022/05/12 12:39:47;;;;;;;3.28;0.88;;;;;;;22.93;51.85;101608.13;10462113;28;20600;-68
2022/05/12 12:44:50;;;;;;;6.60;0.90;;;;;;;22.19;50.61;101607.69;10443739;28;20039;-68
2022/05/12 12:50:08;;;;;;;6.47;0.95;;;;;;;22.59;50.06;101603.09;10442380;28;20455;-67
2022/05/12 13:00:46;;;;;;;6.00;0.87;;;;;;;23.04;45.75;101582.63;10462885;28;20041;-68
2022/05/12 13:05:47;;;;;;;5.03;0.90;;;;;;;22.69;46.86;101583.19;10442618;28;20044;-67
2022/05/12 13:10:49;;;;;;;3.42;1.08;;;;;;;22.58;45.58;101581.81;10458839;28;20045;-66
2022/05/12 13:15:54;;;;;;;6.85;0.75;;;;;;;21.59;47.91;101597.47;10458965;28;20045;-67
2022/05/12 13:20:55;;;;;;;2.60;0.60;;;;;;;22.05;47.87;101593.69;10426065;28;20064;-67
2022/05/12 13:25:56;;;;;;;4.00;1.55;;;;;;;22.27;48.40;101599.38;10458368;28;20436;-67
2022/05/12 13:31:19;;;;;;;5.25;0.55;;;;;;;21.30;49.01;101604.19;10443073;28;20037;-67
2022/05/12 13:36:23;;;;;;;4.28;0.80;;;;;;;21.04;50.62;101613.03;10475324;28;20493;-66
2022/05/12 13:41:31;;;;;;;2.60;0.93;;;;;;;20.35;52.98;101621.13;10442255;28;20522;-66
2022/05/12 13:46:32;;;;;;;2.90;0.75;;;;;;;20.79;50.01;101593.91;10460114;28;20032;-67
2022/05/12 13:51:50;;;;;;;4.38;0.93;;;;;;;20.45;51.27;101606.19;10465679;28;20051;-66
2022/05/12 13:56:51;;;;;;;5.03;1.20;;;;;;;19.46;53.39;101602.16;10452431;28;20056;-67
2022/05/12 14:01:53;;;;;;;8.88;0.88;;;;;;;18.92;54.35;101602.16;10440943;28;20036;-67
2022/05/12 14:06:58;;;;;;;4.45;0.80;;;;;;;18.66;55.21;101604.28;10424501;28;20035;-67
2022/05/12 14:12:04;;;;;;;3.78;0.95;;;;;;;18.70;54.54;101602.56;10440953;28;20036;-68
2022/05/12 14:22:25;;;;;;;5.38;1.58;;;;;;;18.50;54.80;101613.88;10468057;28;20123;-68
2022/05/12 14:27:26;;;;;;;4.35;0.90;;;;;;;19.18;54.20;101613.06;10488246;28;20060;-67
2022/05/12 14:32:30;;;;;;;4.80;0.80;;;;;;;20.43;52.12;101598.09;10439204;28;20033;-66
2022/05/12 14:37:31;;;;;;;5.10;0.80;;;;;;;20.01;53.10;101591.44;10422973;28;20041;-69
2022/05/12 14:42:32;;;;;;;5.70;0.98;;;;;;;20.61;51.47;101590.84;10455800;28;20095;-67
2022/05/12 14:47:32;;;;;;;1.73;0.80;;;;;;;21.02;49.39;101573.31;10439227;28;20099;-69
2022/05/12 14:52:33;;;;;;;7.35;1.52;;;;;;;19.99;50.74;101581.69;10450659;28;20044;-69
2022/05/12 14:57:34;;;;;;;5.65;1.77;;;;;;;20.48;52.27;101589.59;10469561;28;20040;-69
2022/05/12 15:02:36;;;;;;;4.45;0.85;;;;;;;21.45;50.92;101573.09;10495970;28;20032;-69
2022/05/12 15:07:37;;;;;;;6.45;1.20;;;;;;;21.39;48.86;101546.28;10479228;28;20039;-69
2022/05/12 15:12:38;;;;;;;5.78;1.02;;;;;;;21.51;48.27;101549.44;10463135;28;20048;-69
2022/05/12 15:17:41;;;;;;;3.17;0.70;;;;;;;22.15;47.28;101538.19;10480894;28;20040;-69
2022/05/12 15:22:41;;;;;;;5.40;1.08;;;;;;;21.43;47.41;101510.94;10463650;28;20068;-69
2022/05/12 15:27:43;;;;;;;4.93;0.80;;;;;;;22.36;47.07;101546.97;10461633;28;20040;-72
2022/05/12 15:32:43;;;;;;;2.67;0.88;;;;;;;20.80;48.44;101556.41;10442603;28;20036;-69
2022/05/12 15:37:44;;;;;;;4.78;0.70;;;;;;;21.78;46.83;101533.72;10453262;28;20036;-69
2022/05/12 15:42:44;;;;;;;4.50;1.38;;;;;;;22.69;44.32;101532.66;10421351;28;20041;-71
2022/05/12 15:47:47;;;;;;;4.13;0.93;;;;;;;22.98;43.99;101518.13;10455242;28;20029;-67
2022/05/12 15:52:48;;;;;;;5.82;0.82;;;;;;;23.95;42.37;101503.22;10454481;28;20048;-66
2022/05/12 15:57:49;;;;;;;7.13;0.95;;;;;;;22.59;44.41;101516.09;10480672;28;20056;-68
2022/05/12 16:02:49;;;;;;;3.97;1.17;;;;;;;20.69;46.26;101539.78;10473081;28;20060;-67
2022/05/12 16:07:51;;;;;;;3.55;0.90;;;;;;;19.56;50.66;101572.16;10478365;28;20056;-67
2022/05/12 16:12:57;;;;;;;7.80;0.80;;;;;;;19.95;52.23;101571.13;10485913;28;20115;-67
2022/05/12 16:18:01;;;;;;;4.13;0.93;;;;;;;20.40;50.90;101553.94;10490744;28;20045;-67
2022/05/12 16:23:02;;;;;;;7.32;1.48;;;;;;;22.00;46.96;101543.34;10459385;28;20044;-67
2022/05/12 16:28:09;;;;;;;3.58;0.90;;;;;;;22.08;46.19;101534.19;10459335;28;20087;-68
2022/05/12 16:33:10;;;;;;;3.40;1.08;;;;;;;21.72;47.78;101560.19;10441277;28;20055;-67
2022/05/12 16:38:11;;;;;;;5.95;1.20;;;;;;;21.37;49.20;101562.56;10459030;28;20036;-68
2022/05/12 16:43:11;;;;;;;5.40;0.93;;;;;;;20.43;50.59;101561.72;10459299;28;20035;-67
2022/05/12 16:48:13;;;;;;;5.68;1.25;;;;;;;19.62;52.55;101577.69;10464526;28;20045;-67
2022/05/12 16:53:14;;;;;;;5.90;1.25;;;;;;;19.73;53.23;101573.66;10467580;28;20032;-67
2022/05/12 16:58:14;;;;;;;8.90;1.02;;;;;;;19.51;53.69;101568.56;10470676;28;20087;-67
2022/05/12 17:03:15;;;;;;;10.00;0.90;;;;;;;19.52;53.65;101568.28;10424542;28;20074;-67
2022/05/12 17:08:15;;;;;;;2.42;0.95;;;;;;;19.00;54.56;101578.38;10441390;28;20147;-66
2022/05/12 17:13:16;;;;;;;4.90;1.00;;;;;;;18.50;55.38;101570.13;10481643;28;20051;-66
2022/05/12 17:18:19;;;;;;;4.97;0.98;;;;;;;17.97;57.27;101571.88;10483644;28;20037;-66
2022/05/12 17:23:19;;;;;;;4.57;1.08;;;;;;;17.61;57.97;101563.66;10482511;28;20119;-67
2022/05/12 17:28:20;;;;;;;3.20;0.95;;;;;;;17.28;58.95;101594.69;10493679;28;20036;-67
2022/05/12 17:33:20;;;;;;;3.65;1.00;;;;;;;16.99;60.70;101613.94;10448993;28;20033;-66
2022/05/12 17:38:21;;;;;;;7.63;1.20;;;;;;;16.61;62.53;101624.44;10473169;28;20032;-66
2022/05/12 17:43:21;;;;;;;7.68;1.85;;;;;;;16.64;63.51;101611.94;10440701;28;20059;-66
2022/05/12 17:48:22;;;;;;;3.03;0.90;;;;;;;16.65;64.13;101619.19;10443498;28;20048;-64
2022/05/12 17:53:23;;;;;;;4.88;1.00;;;;;;;16.63;64.49;101627.78;10454470;28;20059;-66
2022/05/12 17:58:24;;;;;;;2.35;1.15;;;;;;;16.49;65.92;101621.09;10468849;28;20178;-65
2022/05/12 18:03:25;;;;;;;4.32;1.17;;;;;;;16.25;66.15;101629.97;10479384;28;20432;-66
2022/05/12 18:08:25;;;;;;;2.25;0.90;;;;;;;16.21;67.05;101619.69;10455128;28;20037;-66
2022/05/12 18:13:26;;;;;;;4.97;1.10;;;;;;;16.08;67.86;101632.97;10439209;28;20033;-65
2022/05/12 18:18:26;;;;;;;3.83;1.35;;;;;;;15.98;70.25;101632.09;10476350;28;20067;-66
2022/05/12 18:23:27;;;;;;;8.55;1.17;;;;;;;15.94;69.41;101629.03;10479268;28;20052;-66
2022/05/12 18:28:27;;;;;;;4.55;1.00;;;;;;;15.81;70.09;101622.03;10476804;28;20078;-65
2022/05/12 18:33:28;;;;;;;4.45;1.00;;;;;;;15.70;70.88;101614.75;10435286;28;20041;-65
2022/05/12 18:38:33;;;;;;;5.80;0.98;;;;;;;15.59;71.34;101622.19;10437555;28;20068;-67
2022/05/12 18:43:34;;;;;;;7.30;2.10;;;;;;;15.48;72.36;101624.09;10453468;28;20112;-65
2022/05/12 18:48:34;;;;;;;3.58;1.20;;;;;;;15.32;74.93;101625.09;10436699;28;20052;-66
2022/05/12 18:53:36;;;;;;;2.20;0.85;;;;;;;15.24;75.11;101628.38;10436554;28;20033;-67
2022/05/12 18:58:36;;;;;;;3.97;1.08;;;;;;;15.05;74.80;101620.47;10443801;28;20064;-66
2022/05/12 19:03:37;;;;;;;5.60;1.30;;;;;;;14.89;75.38;101610.38;10468727;28;20036;-67
2022/05/12 19:08:37;;;;;;;3.10;1.13;;;;;;;14.87;76.28;101623.66;10453151;28;20112;-66
2022/05/12 19:13:38;;;;;;;5.30;1.10;;;;;;;14.75;77.76;101637.69;10438734;28;20037;-66
2022/05/12 19:18:39;;;;;;;9.65;1.25;;;;;;;14.66;77.61;101640.13;10437081;28;20480;-66
2022/05/12 19:23:40;;;;;;;3.65;1.13;;;;;;;14.54;78.57;101628.31;10468169;28;20041;-68
2022/05/12 19:28:41;;;;;;;5.15;0.85;;;;;;;14.46;80.17;101637.13;10477674;28;20059;-66
2022/05/12 19:33:42;;;;;;;7.55;1.75;;;;;;;14.22;80.96;101623.59;10494849;28;20052;-67
2022/05/12 19:38:43;;;;;;;6.95;2.65;;;;;;;14.16;82.20;101644.00;10462838;28;20111;-68
2022/05/12 19:43:43;;;;;;;4.65;1.75;;;;;;;13.97;83.76;101648.19;10501051;28;20036;-65
2022/05/12 19:48:44;;;;;;;7.43;1.20;;;;;;;13.80;84.82;101643.56;10484898;28;20133;-66
2022/05/12 19:53:45;;;;;;;5.93;1.65;;;;;;;13.65;85.40;101652.50;10502187;28;20033;-65
2022/05/12 19:58:45;;;;;;;5.05;0.90;;;;;;;13.57;87.25;101663.19;10500808;28;20040;-65
2022/05/12 20:03:46;;;;;;;8.70;1.20;;;;;;;13.45;87.26;101653.06;10484036;28;20104;-65
2022/05/12 20:08:47;;;;;;;6.80;2.05;;;;;;;13.44;90.86;101662.47;10482460;28;20067;-65
2022/05/12 20:13:47;;;;;;;4.35;1.20;;;;;;;13.32;91.28;101661.72;10482861;28;20033;-65
2022/05/12 20:18:48;;;;;;;3.03;1.05;;;;;;;13.20;93.73;101660.94;10481317;28;20041;-62
2022/05/12 20:23:49;;;;;;;5.70;1.73;;;;;;;13.00;94.49;101666.97;10467946;28;20096;-65
2022/05/12 20:28:50;;;;;;;6.18;1.58;;;;;;;12.87;97.54;101677.28;10499740;28;20063;-66
2022/05/12 20:33:50;;;;;;;10.65;1.80;;;;;;;12.82;99.62;101687.41;10501274;28;20032;-65
2022/05/12 20:38:51;;;;;;;5.75;1.20;;;;;;;12.77;100.00;101679.03;10502895;28;20041;-65
2022/05/12 20:43:51;;;;;;;6.53;1.67;;;;;;;12.63;100.00;101684.88;10482032;28;20036;-65
2022/05/12 20:48:53;;;;;;;5.95;1.92;;;;;;;12.28;100.00;101655.50;10442575;28;20044;-66
2022/05/12 20:53:54;;;;;;;7.38;2.10;;;;;;;12.10;100.00;101686.88;10457270;28;20068;-66
2022/05/12 20:58:54;;;;;;;7.45;2.22;;;;;;;11.89;100.00;101677.34;10478081;28;20060;-65
2022/05/12 21:03:55;;;;;;;6.70;1.85;;;;;;;11.73;100.00;101689.09;10499767;28;20048;-65
2022/05/12 21:08:55;;;;;;;5.47;1.67;;;;;;;11.62;100.00;101692.72;10501422;28;20040;-65
2022/05/12 21:13:56;;;;;;;8.65;1.65;;;;;;;11.47;100.00;101674.75;10467333;28;20040;-65
2022/05/12 21:18:56;;;;;;;8.05;2.13;;;;;;;11.34;100.00;101674.16;10499212;28;20033;-66
2022/05/12 21:23:57;;;;;;;8.70;1.80;;;;;;;11.25;100.00;101673.69;10466247;28;20033;-66
2022/05/12 21:28:57;;;;;;;7.25;2.55;;;;;;;11.20;100.00;101677.13;10482593;28;20029;-66
2022/05/12 21:33:58;;;;;;;7.13;2.10;;;;;;;10.99;100.00;101667.53;10439797;28;20664;-66
2022/05/12 21:38:59;;;;;;;6.22;2.40;;;;;;;10.93;100.00;101671.22;10442736;28;20056;-65
2022/05/12 21:43:59;;;;;;;7.20;2.08;;;;;;;10.84;100.00;101670.75;10458763;28;20033;-66
2022/05/12 21:48:59;;;;;;;5.05;1.92;;;;;;;10.74;100.00;101667.72;10441399;28;20044;-66
2022/05/12 21:54:00;;;;;;;5.07;2.28;;;;;;;10.51;100.00;101663.00;10440659;28;20029;-66
2022/05/12 22:04:28;;;;;;;8.38;2.60;;;;;;;10.29;100.00;101665.38;10443850;28;20099;-65
2022/05/12 22:09:35;;;;;;;7.70;2.78;;;;;;;10.12;100.00;101648.69;10458538;28;20093;-66
2022/05/12 22:14:36;;;;;;;7.05;2.22;;;;;;;10.01;100.00;101636.56;10423668;28;20476;-66
2022/05/12 22:19:37;;;;;;;6.45;2.25;;;;;;;9.92;100.00;101643.44;10439450;28;20033;-66
2022/05/12 22:24:38;;;;;;;9.63;2.30;;;;;;;9.63;100.00;101603.84;10439010;28;20032;-66
2022/05/12 22:29:39;;;;;;;8.80;2.58;;;;;;;9.85;100.00;101653.69;10438691;28;20033;-66
2022/05/12 22:34:40;;;;;;;4.95;2.40;;;;;;;9.70;100.00;101638.44;10440054;28;20127;-66
2022/05/12 22:39:40;;;;;;;5.15;2.35;;;;;;;9.69;100.00;101644.16;10459917;28;20448;-66
2022/05/12 22:44:41;;;;;;;4.55;2.10;;;;;;;9.69;100.00;101641.41;10421968;28;20029;-66
2022/05/12 22:49:41;;;;;;;5.18;2.70;;;;;;;9.67;100.00;101638.03;10422157;28;20040;-65
2022/05/12 22:54:42;;;;;;;9.35;2.65;;;;;;;9.61;100.00;101648.06;10456570;28;20033;-66
2022/05/12 22:59:42;;;;;;;7.72;2.50;;;;;;;9.57;100.00;101632.25;10438557;28;20057;-66
2022/05/12 23:04:43;;;;;;;5.75;2.28;;;;;;;9.52;100.00;101621.94;10439728;28;20149;-66
2022/05/12 23:09:43;;;;;;;6.05;2.70;;;;;;;9.49;100.00;101620.50;10437194;28;20468;-65
2022/05/12 23:14:44;;;;;;;9.52;3.05;;;;;;;9.47;100.00;101614.38;10454178;28;20419;-66
2022/05/12 23:25:04;;;;;;;9.43;2.80;;;;;;;9.70;100.00;101619.19;10454393;28;20055;-66
2022/05/12 23:30:06;;;;;;;7.03;3.10;;;;;;;9.84;100.00;101614.38;10421222;28;20128;-66
2022/05/12 23:35:07;;;;;;;8.35;3.40;;;;;;;10.03;100.00;101612.41;10455559;28;20037;-66
2022/05/12 23:40:09;;;;;;;5.60;2.55;;;;;;;10.16;100.00;101600.38;10453307;28;20043;-66